Harrisonburg, Louisiana
Current Conditions -  °F | °C
As of 10:55 AM on Friday 28 Nov 2014 (Local Time) from KHEZ Reporting Station
Clear Clear  
Wind Chill: 12°   Ceiling: Unl
Heat Index: 12°   Visibility: 10mi
Dew Point:   Wind: 7mph
Humidity: 44%   Direction: 130°SE
Pressure: 30.4"   Gusts: NA
Location:  31.77°N, 91.82°W
Report Text: KHEZ 281655Z AUTO 13006KT 10SM CLR 12/00 A3040 RMK AO1
Loading
Personal Weather Stations






























Interactive Weather Map New forecast layout! Learn more

10-Day Weather Forecast

Advertisements
Track Severe Weather on mobile